KBOI/BOI METAR and TAF weather

Enter ICAO airport designator
Station Type Date Time Source
KBOI METAR 2022/07/03 06:53 UTC NOAA

KBOI 030653Z 25012G19KT 10SM CLR 30/M03 A2968 RMK AO2 SLP011 T03001028 403500167


Station Type Date Time Source
KBOI Decoded METAR 2022/07/03 06:53 UTC NOAA

BOISE AIR TERMINAL, ID, United States (KBOI) 43-34N 116-14W 875M
Jul 03, 2022 - 02:53 AM EDT / 2022.07.03 0653 UTC
Wind: from the WSW (250 degrees) at 14 MPH (12 KT) gusting to 22 MPH (19 KT):0
Visibility: 10 mile(s):0
Sky conditions: clear
Temperature: 86.0 F (30.0 C)
Dew Point: 27.0 F (-2.8 C)
Relative Humidity: 11%
Pressure (altimeter): 29.68 in. Hg (1005 hPa)
ob: KBOI 030653Z 25012G19KT 10SM CLR 30/M03 A2968 RMK AO2 SLP011 T03001028 403500167
cycle: 7

Station Type Date Time Source
KBOI TAF 2022/07/03 12:22 UTC NOAA

TAF KBOI 031120Z 0312/0412 36007KT P6SM VCSH BKN130
FM031600 30008KT P6SM BKN150
FM032200 30012G20KT P6SM VCTS BKN090CB
FM040400 VRB06KT P6SM BKN150

Example: see airport list